Terminal Aerodrome Forecast
Issued by NWS Caribou, ME

Home | Current Version | Previous Version | Text Only | Print | Product List | Glossary On
Versions: 1 2 3 4 5 6 7 8 9 10 11 12 13 14 15 16 17 18
000
FTUS41 KCAR 260000 AAA
TAFBGR
TAF AMD
KBGR 260010Z 2600/2624 00000KT P6SM FEW150
     FM261300 23006KT P6SM FEW250
     FM261700 22010KT P6SM SCT070=

USA.gov is the U.S. government's official web portal to all federal, state and local government web resources and services.